»·PEaware :: N922SB KLAS-KSAN

N922SB :: KLAS-KSAN

FLIGHT INFORMATION

Flight Status: Arrived
Operator: Privately registered:
United States
More flights under this callsign
Pilot: Sean B. (13609)
Aircraft: Unknown
(VIPJ)
More flights by this aircraft type
Origin: KLAS McCarran Intl
United States
Destination: KSAN San Diego Intl-Lindbergh
United States
More flights between these airports :: More routes between these airports
Route: +BOACH8 LVELL LUCKI1
File this flight plan on PilotEdge
Remarks:
Altitude:
(Current/Filed)
28,000ft
Speed:
(Current/Filed)
400kts
Departed: 29-Sep-17 06:23 PM
Arrived: 29-Sep-17 07:10 PM
Distance/Time
Traveled:
225nm/0:47
Distance/Time
To Go:
Arrived

Flight Plot

Page will automatically refresh every two minutes.

Flight plan parsing failed; only flown route is shown


Map Options




Map Legend


Flown Route
Filed Route
Departure Airport
Arrival Airport
Navaid (VOR, NDB)
Fix

Horizontal Profiles

Position Reports

Time Latitude Longitude Heading Altitude Ground
Speed
29-Sep-17 18:08 36.100129 -115.159613 207 2115ft 0kts
29-Sep-17 18:09 36.100129 -115.159613 207 2115ft 0kts
29-Sep-17 18:10 36.100129 -115.159613 207 2115ft 0kts
29-Sep-17 18:11 36.100129 -115.159613 207 2115ft 0kts
29-Sep-17 18:12 36.100129 -115.159613 207 2115ft 0kts
29-Sep-17 18:13 36.100129 -115.159613 207 2115ft 0kts
29-Sep-17 18:14 36.100129 -115.159613 207 2115ft 0kts
29-Sep-17 18:15 36.100129 -115.159613 207 2115ft 0kts
29-Sep-17 18:16 36.100129 -115.159613 207 2115ft 0kts
29-Sep-17 18:17 36.100129 -115.159613 207 2115ft 0kts
29-Sep-17 18:18 36.100129 -115.159613 207 2115ft 0kts
29-Sep-17 18:19 36.100129 -115.159613 207 2115ft 0kts
29-Sep-17 18:20 36.100129 -115.159613 207 2115ft 0kts
29-Sep-17 18:21 36.100129 -115.159613 207 2115ft 0kts
29-Sep-17 18:22 36.099826 -115.158869 120 2115ft 6kts
29-Sep-17 18:23 36.099857 -115.157550 78 2115ft 0kts
29-Sep-17 18:24 36.099868 -115.157484 78 2115ft 0kts
29-Sep-17 18:25 36.099869 -115.157477 78 2115ft 0kts
29-Sep-17 18:26 36.099244 -115.156679 195 2115ft 11kts
29-Sep-17 18:27 36.066811 -115.175479 203 3625ft 204kts
29-Sep-17 18:28 36.010402 -115.218067 236 6208ft 284kts
29-Sep-17 18:29 35.966494 -115.296142 208 11114ft 289kts
29-Sep-17 18:30 35.880501 -115.312113 188 12868ft 373kts
29-Sep-17 18:31 35.777205 -115.305862 177 16483ft 380kts
29-Sep-17 18:32 35.670697 -115.295269 184 19125ft 398kts
29-Sep-17 18:33 35.558690 -115.299387 185 21424ft 414kts
29-Sep-17 18:34 35.442573 -115.303995 185 23375ft 429kts
29-Sep-17 18:35 35.334694 -115.308205 185 26255ft 409kts
29-Sep-17 18:36 35.219969 -115.312794 185 27877ft 419kts
29-Sep-17 18:37 35.105205 -115.317279 185 27863ft 411kts
29-Sep-17 18:38 34.993401 -115.321661 185 27864ft 408kts
29-Sep-17 18:39 34.881781 -115.326110 185 27861ft 406kts
29-Sep-17 18:40 34.773945 -115.334111 202 27809ft 397kts
29-Sep-17 18:41 34.671699 -115.378760 204 27860ft 394kts
29-Sep-17 18:42 34.568782 -115.423789 204 27861ft 394kts
29-Sep-17 18:43 34.466060 -115.468578 204 27861ft 394kts
29-Sep-17 18:44 34.363500 -115.513178 204 27902ft 393kts
29-Sep-17 18:45 34.268050 -115.572208 216 27999ft 386kts
29-Sep-17 18:46 34.172785 -115.632550 206 28004ft 395kts
29-Sep-17 18:47 34.081128 -115.676100 204 28004ft 397kts
29-Sep-17 18:48 33.978294 -115.724303 205 28004ft 399kts
29-Sep-17 18:49 33.879055 -115.771894 206 27996ft 400kts
29-Sep-17 18:50 33.782596 -115.819097 206 27615ft 368kts
29-Sep-17 18:51 33.689715 -115.862898 205 26291ft 356kts
29-Sep-17 18:52 33.598321 -115.905647 205 25006ft 353kts
29-Sep-17 18:53 33.511934 -115.955523 233 23575ft 344kts
29-Sep-17 18:54 33.459078 -116.041261 239 22166ft 345kts
29-Sep-17 18:55 33.404944 -116.134295 238 20575ft 341kts
29-Sep-17 18:56 33.351310 -116.226302 238 18882ft 334kts
29-Sep-17 18:57 33.274847 -116.286805 209 17147ft 334kts
29-Sep-17 18:58 33.192572 -116.335014 208 15450ft 327kts
29-Sep-17 18:59 33.112546 -116.381792 208 13892ft 316kts
29-Sep-17 19:00 33.035018 -116.427034 208 12417ft 309kts
29-Sep-17 19:01 32.967131 -116.483137 222 11261ft 289kts
29-Sep-17 19:02 32.908067 -116.546343 222 10144ft 285kts
29-Sep-17 19:03 32.857926 -116.612789 224 9074ft 283kts
29-Sep-17 19:04 32.803806 -116.668044 222 8087ft 282kts
29-Sep-17 19:05 32.748218 -116.725456 222 6984ft 274kts
29-Sep-17 19:06 32.713473 -116.802241 245 6034ft 255kts
29-Sep-17 19:07 32.689523 -116.876738 261 5810ft 233kts
29-Sep-17 19:08 32.673209 -116.946329 280 4887ft 216kts
29-Sep-17 19:09 32.690342 -117.012568 287 3455ft 206kts
29-Sep-17 19:10 32.704564 -117.070481 286 2058ft 161kts
29-Sep-17 19:11 32.712817 -117.105322 284 1721ft 119kts
29-Sep-17 19:12 32.721317 -117.138147 288 960ft 104kts
29-Sep-17 19:13 32.729496 -117.172955 288 184ft 89kts
29-Sep-17 19:14 32.733998 -117.188081 19 18ft 3kts
29-Sep-17 19:15 32.733807 -117.185946 106 18ft 6kts
29-Sep-17 19:16 32.733099 -117.183031 106 18ft 12kts
29-Sep-17 19:17 32.732261 -117.179488 103 19ft 8kts
29-Sep-17 19:18 32.732842 -117.178334 129 23ft 2kts
29-Sep-17 19:19 32.732462 -117.178446 192 23ft 0kts
29-Sep-17 19:20 32.732462 -117.178446 192 23ft 0kts
29-Sep-17 19:21 32.732462 -117.178446 192 23ft 0kts
29-Sep-17 19:22 32.732462 -117.178446 192 23ft 0kts

Navigation Log

Ident Type
Flight plan parsing failed, navigation log unavailable